Time;durP1;ratioP1;P1;durP2;ratioP2;P2;SDS_P1;SDS_P2;PMS_P1;PMS_P2;Temp;Humidity;BMP_temperature;BMP_pressure;BME280_temperature;BME280_humidity;BME280_pressure;Samples;Min_cycle;Max_cycle;Signal;HPM_P1;HPM_P2
2023/01/27 00:01:44;;;;;;;18.73;9.02;;;4.00;99.90;;;;;;5021233;28;20040;-81
2023/01/27 00:04:09;;;;;;;16.52;9.02;;;4.00;99.90;;;;;;5046640;28;20045;-81
2023/01/27 00:06:35;;;;;;;15.98;8.20;;;4.10;99.90;;;;;;5027607;28;20043;-81
2023/01/27 00:09:01;;;;;;;13.63;7.85;;;4.10;99.90;;;;;;5047552;28;20487;-81
2023/01/27 00:14:10;;;;;;;14.98;8.70;;;4.00;99.90;;;;;;5046437;28;20045;-81
2023/01/27 00:16:36;;;;;;;13.45;8.38;;;4.00;99.90;;;;;;5058063;28;20167;-81
2023/01/27 00:19:02;;;;;;;16.70;7.80;;;4.00;99.90;;;;;;5048072;28;20938;-81
2023/01/27 00:26:57;;;;;;;14.68;7.82;;;4.00;99.90;;;;;;5050072;28;20037;-81
2023/01/27 00:29:22;;;;;;;15.30;8.07;;;4.00;99.90;;;;;;5043926;28;20123;-81
2023/01/27 00:34:32;;;;;;;16.13;9.32;;;4.00;99.90;;;;;;5050912;28;20131;-81
2023/01/27 00:36:58;;;;;;;15.77;8.95;;;4.00;99.90;;;;;;5048831;28;20825;-81
2023/01/27 00:39:23;;;;;;;15.57;9.48;;;4.00;99.90;;;;;;5038414;28;20086;-81
2023/01/27 00:41:49;;;;;;;15.77;9.60;;;4.00;99.90;;;;;;5050960;28;20475;-81
2023/01/27 00:44:15;;;;;;;12.98;8.23;;;4.00;99.90;;;;;;5050429;28;20052;-81
2023/01/27 00:46:41;;;;;;;14.15;8.23;;;4.00;99.90;;;;;;5048481;28;20038;-81
2023/01/27 00:49:07;;;;;;;13.10;7.72;;;4.00;99.90;;;;;;5047865;28;20029;-81
2023/01/27 00:51:33;;;;;;;14.40;8.05;;;4.00;99.90;;;;;;5048233;28;20072;-81
2023/01/27 00:54:01;;;;;;;11.48;6.88;;;4.00;99.90;;;;;;5051530;28;20079;-81
2023/01/27 00:56:27;;;;;;;11.80;6.30;;;4.00;99.90;;;;;;5047483;28;20507;-81
2023/01/27 00:58:53;;;;;;;10.85;6.20;;;4.00;99.90;;;;;;5043696;28;20072;-81
2023/01/27 01:01:19;;;;;;;10.23;6.25;;;4.00;99.90;;;;;;5050949;28;20480;-81
2023/01/27 01:03:44;;;;;;;11.68;6.63;;;4.00;99.90;;;;;;5052850;28;20037;-81
2023/01/27 01:06:13;;;;;;;12.18;6.88;;;4.00;99.90;;;;;;5051262;28;20037;-81
2023/01/27 01:08:39;;;;;;;16.35;6.85;;;4.00;99.90;;;;;;5047192;28;20051;-81
2023/01/27 01:11:07;;;;;;;13.02;6.82;;;4.00;99.90;;;;;;5063055;28;20041;-81
2023/01/27 01:13:33;;;;;;;12.70;5.95;;;4.00;99.90;;;;;;5042275;28;20048;-81
2023/01/27 01:16:05;;;;;;;9.88;5.15;;;4.00;99.90;;;;;;5049907;28;20059;-81
2023/01/27 01:18:30;;;;;;;9.60;5.13;;;4.00;99.90;;;;;;5040857;28;20050;-81
2023/01/27 01:20:56;;;;;;;8.68;4.68;;;4.00;99.90;;;;;;5048634;28;20037;-81
2023/01/27 01:23:22;;;;;;;8.63;4.57;;;4.00;99.90;;;;;;5044287;28;20050;-81
2023/01/27 01:25:55;;;;;;;9.20;4.53;;;4.00;99.90;;;;;;5047890;28;20102;-81
2023/01/27 01:28:22;;;;;;;6.65;3.58;;;4.00;99.90;;;;;;5050505;28;20033;-81
2023/01/27 01:30:47;;;;;;;7.63;3.50;;;4.00;99.90;;;;;;5048746;28;20037;-81
2023/01/27 01:33:14;;;;;;;6.88;3.40;;;4.00;99.90;;;;;;5044940;28;20037;-81
2023/01/27 01:35:39;;;;;;;8.90;3.50;;;4.00;99.90;;;;;;5049534;28;20041;-81
2023/01/27 01:38:05;;;;;;;6.20;3.33;;;4.00;99.90;;;;;;5045639;28;20319;-81
2023/01/27 01:40:32;;;;;;;9.55;4.03;;;4.00;99.90;;;;;;5039903;28;20126;-81
2023/01/27 01:43:02;;;;;;;10.13;3.70;;;4.00;99.90;;;;;;5042066;28;20032;-81
2023/01/27 01:45:30;;;;;;;6.45;3.20;;;4.00;99.90;;;;;;5045464;28;20044;-81
2023/01/27 01:48:08;;;;;;;7.75;3.30;;;4.00;99.90;;;;;;5048891;28;20033;-81
2023/01/27 01:50:36;;;;;;;7.30;3.33;;;4.00;99.90;;;;;;5041925;28;20049;-81
2023/01/27 01:53:04;;;;;;;7.22;3.35;;;4.00;99.90;;;;;;5041412;28;20129;-81
2023/01/27 01:55:33;;;;;;;8.40;3.05;;;4.00;99.90;;;;;;5049388;28;20052;-81
2023/01/27 01:57:59;;;;;;;8.60;2.67;;;4.00;99.90;;;;;;5050442;28;20044;-81
2023/01/27 02:00:25;;;;;;;7.32;2.95;;;4.00;99.90;;;;;;5044010;28;20116;-81
2023/01/27 02:02:51;;;;;;;7.15;2.65;;;4.00;99.90;;;;;;5050291;28;20117;-82
2023/01/27 02:05:26;;;;;;;7.10;2.70;;;4.00;99.90;;;;;;5048526;28;20029;-81
2023/01/27 02:08:08;;;;;;;6.28;2.67;;;4.00;99.90;;;;;;5040255;28;20587;-81
2023/01/27 02:10:34;;;;;;;7.55;2.58;;;4.00;99.90;;;;;;5049332;28;20056;-82
2023/01/27 02:12:59;;;;;;;7.50;2.67;;;4.00;99.90;;;;;;5043604;28;20040;-82
2023/01/27 02:15:25;;;;;;;6.22;2.45;;;4.00;99.90;;;;;;5039645;28;20044;-82
2023/01/27 02:17:51;;;;;;;7.85;2.63;;;4.00;99.90;;;;;;5042512;28;20037;-82
2023/01/27 02:20:33;;;;;;;7.25;2.33;;;4.00;99.90;;;;;;5037785;28;20116;-81
2023/01/27 02:23:16;;;;;;;5.60;2.38;;;4.10;99.90;;;;;;5050341;28;20123;-81
2023/01/27 02:25:57;;;;;;;5.82;2.03;;;4.00;99.90;;;;;;5041587;28;20495;-81
2023/01/27 02:28:26;;;;;;;5.22;2.28;;;4.10;99.90;;;;;;5044895;28;20077;-81
2023/01/27 02:30:52;;;;;;;5.53;2.00;;;4.10;99.90;;;;;;5044196;28;20037;-81
2023/01/27 02:33:17;;;;;;;7.80;1.92;;;4.10;99.90;;;;;;5029397;28;20049;-81
2023/01/27 02:35:54;;;;;;;5.97;1.75;;;4.10;99.90;;;;;;5045978;28;20051;-81
2023/01/27 02:38:20;;;;;;;4.20;1.77;;;4.10;99.90;;;;;;5047300;28;20039;-81
2023/01/27 02:40:51;;;;;;;4.68;1.80;;;4.10;99.90;;;;;;5025457;28;20036;-81
2023/01/27 02:43:17;;;;;;;4.68;1.70;;;4.10;99.90;;;;;;5049491;28;20476;-81
2023/01/27 02:45:45;;;;;;;5.63;1.67;;;4.10;99.90;;;;;;5043202;28;20076;-81
2023/01/27 02:48:12;;;;;;;3.88;1.60;;;4.10;99.90;;;;;;5043779;28;20033;-81
2023/01/27 02:50:37;;;;;;;3.55;1.50;;;4.80;99.90;;;;;;5048656;28;20059;-81
2023/01/27 02:53:03;;;;;;;5.38;1.63;;;4.10;99.90;;;;;;5050727;28;20073;-81
2023/01/27 02:55:29;;;;;;;4.22;1.38;;;4.10;99.90;;;;;;5040590;28;20041;-81
2023/01/27 02:57:54;;;;;;;3.65;1.52;;;4.10;99.90;;;;;;5032224;28;20068;-82
2023/01/27 03:00:20;;;;;;;4.18;1.50;;;4.20;99.90;;;;;;5049327;28;20044;-81
2023/01/27 03:02:46;;;;;;;4.68;1.70;;;4.20;99.90;;;;;;5048673;28;20184;-82
2023/01/27 03:05:12;;;;;;;4.28;1.35;;;4.20;99.90;;;;;;5050250;28;20395;-81
2023/01/27 03:07:38;;;;;;;3.58;1.55;;;4.20;99.90;;;;;;5043147;28;20500;-82
2023/01/27 03:10:04;;;;;;;4.25;1.80;;;4.80;99.90;;;;;;5042752;28;20056;-82
2023/01/27 03:12:30;;;;;;;5.07;1.48;;;4.10;99.90;;;;;;5056032;28;20079;-81
2023/01/27 03:20:24;;;;;;;4.65;1.45;;;4.10;99.90;;;;;;5038203;28;20072;-81
2023/01/27 03:22:50;;;;;;;5.32;1.60;;;4.10;99.90;;;;;;5048367;28;20443;-81
2023/01/27 03:25:16;;;;;;;6.53;1.60;;;4.10;99.90;;;;;;5042165;28;20053;-82
2023/01/27 03:27:42;;;;;;;2.78;1.35;;;4.10;99.90;;;;;;5042208;28;20048;-81
2023/01/27 03:30:08;;;;;;;3.30;1.50;;;4.10;99.90;;;;;;5042167;28;20080;-81
2023/01/27 03:32:34;;;;;;;3.75;1.80;;;4.10;99.90;;;;;;5050147;28;20044;-81
2023/01/27 03:35:00;;;;;;;4.72;1.50;;;4.10;99.90;;;;;;5048267;28;20041;-82
2023/01/27 03:48:32;;;;;;;4.90;1.77;;;4.00;99.90;;;;;;5044148;28;20044;-81
2023/01/27 03:50:58;;;;;;;5.47;1.52;;;4.00;99.90;;;;;;5047289;28;20041;-81
2023/01/27 03:53:24;;;;;;;5.32;2.00;;;4.00;99.90;;;;;;5048551;28;20049;-81
2023/01/27 03:55:50;;;;;;;4.28;1.95;;;4.00;99.90;;;;;;5043838;28;20130;-81
2023/01/27 03:58:20;;;;;;;3.35;1.52;;;4.00;99.90;;;;;;5024496;28;20083;-82
2023/01/27 04:00:49;;;;;;;3.42;1.50;;;4.10;99.90;;;;;;5043690;28;20048;-82
2023/01/27 04:08:53;;;;;;;6.22;1.85;;;4.00;99.90;;;;;;5046453;28;20128;-81
2023/01/27 04:14:04;;;;;;;3.95;1.45;;;4.00;99.90;;;;;;5042741;28;20543;-81
2023/01/27 04:16:30;;;;;;;4.68;1.80;;;4.00;99.90;;;;;;5045859;28;20095;-81
2023/01/27 04:18:56;;;;;;;5.20;1.60;;;4.00;99.90;;;;;;5031094;28;20029;-81
2023/01/27 04:21:24;;;;;;;5.53;2.00;;;4.00;99.90;;;;;;5035729;28;20040;-81
2023/01/27 04:23:51;;;;;;;6.47;1.85;;;4.00;99.90;;;;;;5035475;28;20041;-82
2023/01/27 04:26:17;;;;;;;4.70;1.95;;;4.10;99.90;;;;;;5038438;28;20161;-81
2023/01/27 04:28:42;;;;;;;6.63;1.75;;;4.00;99.90;;;;;;5052996;28;20045;-81
2023/01/27 04:31:08;;;;;;;4.43;1.92;;;3.80;99.90;;;;;;5050198;28;20048;-81
2023/01/27 04:33:34;;;;;;;4.45;1.77;;;4.00;99.90;;;;;;5044532;28;20079;-81
2023/01/27 04:36:00;;;;;;;4.35;1.67;;;3.90;99.90;;;;;;5034025;28;20049;-81
2023/01/27 04:38:25;;;;;;;5.60;2.15;;;3.90;99.90;;;;;;5050492;28;20094;-81
2023/01/27 04:40:51;;;;;;;3.92;1.65;;;3.90;99.90;;;;;;5040263;28;20100;-81
2023/01/27 04:43:17;;;;;;;5.07;1.75;;;3.90;99.90;;;;;;5045547;28;20550;-82
2023/01/27 04:45:42;;;;;;;5.43;1.65;;;3.90;99.90;;;;;;5050993;28;20033;-81
2023/01/27 04:48:08;;;;;;;3.28;1.50;;;3.90;99.90;;;;;;5044536;28;20105;-81
2023/01/27 04:50:34;;;;;;;3.53;1.80;;;3.90;99.90;;;;;;5051517;28;20056;-81
2023/01/27 04:52:59;;;;;;;4.40;2.05;;;3.90;99.90;;;;;;5051862;28;20043;-81
2023/01/27 04:55:26;;;;;;;3.53;1.75;;;3.90;99.90;;;;;;5035201;28;20041;-82
2023/01/27 04:57:52;;;;;;;4.18;1.90;;;3.90;99.90;;;;;;5053010;28;20045;-81
2023/01/27 05:00:19;;;;;;;4.88;1.80;;;3.90;99.90;;;;;;5035332;28;20045;-81
2023/01/27 05:02:45;;;;;;;4.32;2.00;;;3.90;99.90;;;;;;5034521;28;20037;-81
2023/01/27 05:05:11;;;;;;;5.75;2.20;;;3.90;99.90;;;;;;5046160;28;20368;-81
2023/01/27 05:07:37;;;;;;;3.95;1.88;;;3.90;99.90;;;;;;5039148;28;20044;-81
2023/01/27 05:10:03;;;;;;;7.75;2.22;;;3.90;99.90;;;;;;5043680;28;20041;-82
2023/01/27 05:12:29;;;;;;;6.90;2.00;;;3.90;99.90;;;;;;5027753;28;20381;-82
2023/01/27 05:14:55;;;;;;;5.18;2.00;;;3.90;99.90;;;;;;5051267;28;20032;-82
2023/01/27 05:17:20;;;;;;;6.10;1.90;;;3.90;99.90;;;;;;5050969;28;20036;-81
2023/01/27 05:19:46;;;;;;;6.00;2.15;;;3.90;99.90;;;;;;5044341;28;20487;-82
2023/01/27 05:22:11;;;;;;;6.82;2.25;;;3.90;99.90;;;;;;5045311;28;20088;-81
2023/01/27 05:24:37;;;;;;;6.50;2.90;;;3.90;99.90;;;;;;5049690;28;20760;-82
2023/01/27 05:27:03;;;;;;;6.60;2.90;;;3.90;99.90;;;;;;5038758;28;20120;-82
2023/01/27 05:29:29;;;;;;;6.82;2.85;;;3.90;99.90;;;;;;5046910;28;20476;-82
2023/01/27 05:31:55;;;;;;;6.50;2.65;;;3.90;99.90;;;;;;5049176;28;20037;-82
2023/01/27 05:34:20;;;;;;;5.68;2.60;;;3.80;99.90;;;;;;5025327;28;20408;-81
2023/01/27 05:36:46;;;;;;;6.10;2.92;;;3.80;99.90;;;;;;5032006;28;20033;-79
2023/01/27 05:39:12;;;;;;;4.93;2.30;;;3.90;99.90;;;;;;5047338;28;20048;-80
2023/01/27 05:41:37;;;;;;;4.95;2.53;;;3.80;99.90;;;;;;5048428;28;20049;-80
2023/01/27 05:44:03;;;;;;;5.60;2.25;;;3.80;99.90;;;;;;5047376;28;20079;-79
2023/01/27 05:46:30;;;;;;;5.07;2.22;;;3.80;99.90;;;;;;5048828;28;20510;-79
2023/01/27 05:49:04;;;;;;;4.93;2.08;;;3.80;99.90;;;;;;5049803;28;20041;-79
2023/01/27 05:51:31;;;;;;;5.70;2.22;;;3.80;99.90;;;;;;5052092;28;20667;-79
2023/01/27 05:53:57;;;;;;;4.93;2.20;;;3.80;99.90;;;;;;5031093;28;20036;-80
2023/01/27 05:56:23;;;;;;;6.10;2.13;;;3.80;99.90;;;;;;5047980;28;20033;-80
2023/01/27 05:58:48;;;;;;;5.05;2.17;;;3.80;99.90;;;;;;5049172;28;20112;-80
2023/01/27 06:01:16;;;;;;;4.38;2.05;;;3.70;99.90;;;;;;5041668;28;20052;-79
2023/01/27 06:03:43;;;;;;;3.85;1.70;;;3.80;99.90;;;;;;5048809;28;20088;-80
2023/01/27 06:06:10;;;;;;;7.55;1.80;;;3.70;99.90;;;;;;5034352;28;20037;-80
2023/01/27 06:08:37;;;;;;;4.85;1.85;;;3.70;99.90;;;;;;5046844;28;20087;-80
2023/01/27 06:11:03;;;;;;;6.75;2.00;;;3.70;99.90;;;;;;5051711;28;20174;-80
2023/01/27 06:13:29;;;;;;;5.85;1.65;;;3.70;99.90;;;;;;5050256;28;20136;-80
2023/01/27 06:15:55;;;;;;;3.90;1.73;;;3.70;99.90;;;;;;5045434;28;20500;-80
2023/01/27 06:18:21;;;;;;;4.75;2.00;;;3.70;99.90;;;;;;5043738;28;20163;-80
2023/01/27 06:20:47;;;;;;;4.53;1.70;;;3.70;99.90;;;;;;5046715;28;20033;-79
2023/01/27 06:23:15;;;;;;;3.33;1.30;;;3.70;99.90;;;;;;5043736;28;20059;-79
2023/01/27 06:25:43;;;;;;;4.90;1.58;;;3.70;99.90;;;;;;5046323;28;20049;-80
2023/01/27 06:28:09;;;;;;;3.83;1.27;;;3.70;99.90;;;;;;5047899;28;20037;-79
2023/01/27 06:30:36;;;;;;;4.13;1.50;;;3.70;99.90;;;;;;5045745;28;20044;-80
2023/01/27 06:33:03;;;;;;;4.68;1.60;;;3.70;99.90;;;;;;5045886;28;20041;-79
2023/01/27 06:35:29;;;;;;;5.05;1.60;;;3.70;99.90;;;;;;5049887;28;20044;-79
2023/01/27 06:37:57;;;;;;;9.15;1.70;;;3.60;99.90;;;;;;5050935;28;20048;-80
2023/01/27 06:40:24;;;;;;;6.95;1.88;;;4.00;99.90;;;;;;5046090;28;20036;-80
2023/01/27 06:42:49;;;;;;;6.30;1.90;;;3.70;99.90;;;;;;5046073;28;20504;-79
2023/01/27 06:45:15;;;;;;;9.80;1.80;;;3.70;99.90;;;;;;5050049;28;20040;-80
2023/01/27 06:47:41;;;;;;;8.07;1.55;;;3.70;99.90;;;;;;5045231;28;20044;-80
2023/01/27 06:50:08;;;;;;;6.50;1.52;;;3.70;99.90;;;;;;5044627;28;20117;-82
2023/01/27 06:52:34;;;;;;;6.43;1.45;;;3.70;99.90;;;;;;5045736;28;20049;-80
2023/01/27 06:54:59;;;;;;;4.80;1.52;;;3.70;99.90;;;;;;5048442;28;20118;-81
2023/01/27 06:57:25;;;;;;;8.13;2.38;;;3.70;99.90;;;;;;5039855;28;20500;-81
2023/01/27 06:59:50;;;;;;;4.72;1.63;;;3.70;99.90;;;;;;5041472;28;20029;-79
2023/01/27 07:02:16;;;;;;;3.47;1.40;;;3.70;99.90;;;;;;5048038;28;20029;-81
2023/01/27 07:04:42;;;;;;;5.35;1.70;;;3.80;99.90;;;;;;5043690;28;20091;-79
2023/01/27 07:07:07;;;;;;;7.07;1.40;;;3.60;99.90;;;;;;5043643;28;20033;-79
2023/01/27 07:09:33;;;;;;;6.25;1.52;;;3.70;99.90;;;;;;5039575;28;20036;-80
2023/01/27 07:11:58;;;;;;;4.90;1.90;;;3.70;99.90;;;;;;5049521;28;20044;-80
2023/01/27 07:14:24;;;;;;;5.50;1.52;;;3.60;99.90;;;;;;5050345;28;20114;-80
2023/01/27 07:16:49;;;;;;;4.65;1.52;;;3.60;99.90;;;;;;5042450;28;20501;-80
2023/01/27 07:19:15;;;;;;;6.95;1.77;;;3.60;99.90;;;;;;5048248;28;20040;-81
2023/01/27 07:21:42;;;;;;;8.95;2.17;;;3.70;99.90;;;;;;5044642;28;20701;-82
2023/01/27 07:24:08;;;;;;;6.85;1.80;;;3.60;99.90;;;;;;5042155;28;20106;-82
2023/01/27 07:26:33;;;;;;;8.05;1.80;;;3.70;99.90;;;;;;5057015;28;20053;-83
2023/01/27 07:28:59;;;;;;;5.57;1.65;;;3.60;99.90;;;;;;5047855;28;20076;-81
2023/01/27 07:31:25;;;;;;;5.68;1.58;;;3.70;99.90;;;;;;5045642;28;20072;-82
2023/01/27 07:33:52;;;;;;;5.18;1.60;;;3.90;99.90;;;;;;5044445;28;20032;-79
2023/01/27 07:36:17;;;;;;;4.82;2.45;;;3.60;99.90;;;;;;5044957;28;20037;-80
2023/01/27 07:38:43;;;;;;;6.18;1.70;;;3.60;99.90;;;;;;5043052;28;20124;-80
2023/01/27 07:41:08;;;;;;;7.57;2.30;;;3.50;99.90;;;;;;5047270;28;20076;-80
2023/01/27 07:43:34;;;;;;;8.48;2.08;;;3.50;99.90;;;;;;5054737;28;20080;-79
2023/01/27 07:46:00;;;;;;;7.88;2.10;;;3.40;99.90;;;;;;5044579;28;20274;-80
2023/01/27 07:48:26;;;;;;;8.45;3.22;;;3.40;99.90;;;;;;5044004;28;20041;-80
2023/01/27 07:50:52;;;;;;;5.95;2.30;;;3.30;99.90;;;;;;5042019;28;20076;-80
2023/01/27 07:53:17;;;;;;;9.50;2.30;;;3.30;99.90;;;;;;5044435;28;20500;-79
2023/01/27 07:55:43;;;;;;;7.40;2.70;;;3.30;99.90;;;;;;5049284;28;20064;-80
2023/01/27 07:58:09;;;;;;;6.28;2.38;;;3.30;99.90;;;;;;5045372;28;20124;-80
2023/01/27 08:00:34;;;;;;;6.28;2.75;;;3.30;99.90;;;;;;5046579;28;20041;-80
2023/01/27 08:03:01;;;;;;;7.97;2.80;;;3.30;99.90;;;;;;5043321;28;20116;-80
2023/01/27 08:05:30;;;;;;;5.93;2.30;;;3.30;99.90;;;;;;5039221;28;20037;-80
2023/01/27 08:07:57;;;;;;;10.77;2.40;;;3.30;99.90;;;;;;5047000;28;20036;-81
2023/01/27 08:10:23;;;;;;;5.68;2.33;;;3.20;99.90;;;;;;5040562;28;20037;-80
2023/01/27 08:12:48;;;;;;;6.85;2.40;;;3.20;99.90;;;;;;5041839;28;20167;-80
2023/01/27 08:15:14;;;;;;;8.35;2.80;;;3.20;99.90;;;;;;5048329;28;20036;-80
2023/01/27 08:17:40;;;;;;;8.48;2.50;;;3.20;99.90;;;;;;5039733;28;20051;-80
2023/01/27 08:20:07;;;;;;;8.02;2.55;;;3.20;99.90;;;;;;5048940;28;20079;-80
2023/01/27 08:22:32;;;;;;;5.28;2.33;;;3.20;99.90;;;;;;5042335;28;20057;-80
2023/01/27 08:24:58;;;;;;;8.60;2.80;;;3.10;99.90;;;;;;5040958;28;20049;-80
2023/01/27 08:27:24;;;;;;;8.10;2.75;;;2.70;99.90;;;;;;5050029;28;20380;-80
2023/01/27 08:29:49;;;;;;;5.93;2.92;;;3.10;99.90;;;;;;5039252;28;20049;-79
2023/01/27 08:32:15;;;;;;;6.95;2.38;;;3.00;99.90;;;;;;5044576;28;20037;-80
2023/01/27 08:34:40;;;;;;;7.15;3.03;;;3.00;99.90;;;;;;5049461;28;20191;-80
2023/01/27 08:37:06;;;;;;;7.25;2.55;;;3.00;99.90;;;;;;5037615;28;20037;-80
2023/01/27 08:39:33;;;;;;;9.30;2.78;;;3.10;99.90;;;;;;5041935;28;20042;-81
2023/01/27 08:41:59;;;;;;;6.38;2.60;;;3.10;99.90;;;;;;5042316;28;20492;-80
2023/01/27 08:44:27;;;;;;;7.20;3.03;;;3.10;99.90;;;;;;5042186;28;20054;-80
2023/01/27 08:46:53;;;;;;;7.95;2.72;;;3.00;99.90;;;;;;5051805;28;20401;-81
2023/01/27 08:49:19;;;;;;;7.60;3.00;;;3.10;99.90;;;;;;5049304;28;20739;-81
2023/01/27 08:51:44;;;;;;;7.43;3.00;;;3.20;99.90;;;;;;5046658;28;20033;-80
2023/01/27 08:54:10;;;;;;;7.22;3.25;;;3.20;99.90;;;;;;5046295;28;20068;-81
2023/01/27 08:56:36;;;;;;;8.80;2.78;;;3.20;99.90;;;;;;5039324;28;20395;-81
2023/01/27 08:59:01;;;;;;;8.05;2.65;;;3.30;99.90;;;;;;5050945;28;20040;-81
2023/01/27 09:01:27;;;;;;;6.43;2.80;;;3.40;99.90;;;;;;5048922;28;20121;-82
2023/01/27 09:03:53;;;;;;;6.85;2.50;;;3.40;99.90;;;;;;5052887;28;20049;-81
2023/01/27 09:06:20;;;;;;;8.98;3.35;;;3.50;99.90;;;;;;5054063;28;20037;-81
2023/01/27 09:09:29;;;;;;;6.25;2.80;;;3.60;99.90;;;;;;5041523;28;20485;-80
2023/01/27 09:11:41;;;;;;;6.63;2.33;;;3.60;99.90;;;;;;5032809;28;20045;-81
2023/01/27 09:14:06;;;;;;;9.52;2.67;;;3.70;99.90;;;;;;5050549;28;20044;-80
2023/01/27 09:16:32;;;;;;;12.10;3.13;;;3.70;99.90;;;;;;5051726;28;20055;-80
2023/01/27 09:18:58;;;;;;;9.95;3.05;;;3.80;99.90;;;;;;5043065;28;20476;-81
2023/01/27 09:21:24;;;;;;;8.23;2.97;;;3.80;99.90;;;;;;5043709;28;20057;-80
2023/01/27 09:23:50;;;;;;;7.38;3.00;;;3.80;99.90;;;;;;5042284;28;20128;-81
2023/01/27 09:26:16;;;;;;;9.43;2.80;;;3.90;99.90;;;;;;5050757;28;20715;-80
2023/01/27 09:28:42;;;;;;;8.82;2.60;;;3.90;99.90;;;;;;5050658;28;20043;-80
2023/01/27 09:31:08;;;;;;;8.40;2.88;;;3.90;99.90;;;;;;5046469;28;20404;-80
2023/01/27 09:33:34;;;;;;;8.25;2.95;;;4.00;99.90;;;;;;5045030;28;20049;-81
2023/01/27 09:36:05;;;;;;;11.70;2.85;;;4.00;99.90;;;;;;5047845;28;20053;-80
2023/01/27 09:38:36;;;;;;;7.65;2.75;;;4.10;99.90;;;;;;5047576;28;20073;-80
2023/01/27 09:41:33;;;;;;;9.90;2.65;;;4.20;99.90;;;;;;5053913;28;20115;-80
2023/01/27 09:44:22;;;;;;;6.93;2.58;;;4.20;99.90;;;;;;5043314;28;20517;-81
2023/01/27 09:47:26;;;;;;;5.75;2.72;;;4.20;99.90;;;;;;5046107;28;20045;-81
2023/01/27 09:50:21;;;;;;;6.20;2.60;;;4.30;99.90;;;;;;5064419;28;20668;-82
2023/01/27 09:53:06;;;;;;;;;;;4.40;99.90;;;;;;5047211;28;20043;-81
2023/01/27 09:55:43;;;;;;;5.75;2.17;;;4.40;99.90;;;;;;5055343;28;19920;-80
2023/01/27 09:58:24;;;;;;;10.43;2.20;;;4.40;99.90;;;;;;5048263;28;20562;-80
2023/01/27 10:00:52;;;;;;;4.18;2.08;;;4.40;99.90;;;;;;5049627;28;20037;-81
2023/01/27 10:03:38;;;;;;;4.72;2.05;;;4.40;99.90;;;;;;5056330;28;20029;-81
2023/01/27 10:06:18;;;;;;;7.80;2.15;;;4.50;99.90;;;;;;5044949;28;20534;-80
2023/01/27 10:09:15;;;;;;;6.38;2.15;;;4.50;99.90;;;;;;5045966;28;20045;-81
2023/01/27 10:12:21;;;;;;;4.35;2.13;;;4.60;99.90;;;;;;5051652;28;20036;-81
2023/01/27 10:14:55;;;;;;;8.00;1.85;;;4.60;99.90;;;;;;5061001;28;20063;-80
2023/01/27 10:17:48;;;;;;;5.45;2.40;;;4.60;99.90;;;;;;5048992;28;20143;-80
2023/01/27 10:20:27;;;;;;;4.60;2.10;;;4.70;99.90;;;;;;5047056;28;20052;-81
2023/01/27 10:22:59;;;;;;;5.13;2.05;;;4.80;99.90;;;;;;5041288;28;20112;-81
2023/01/27 10:25:36;;;;;;;3.75;1.40;;;4.90;99.90;;;;;;5043871;28;20115;-80
2023/01/27 10:28:13;;;;;;;2.80;1.02;;;4.90;99.90;;;;;;5040506;28;20416;-80
2023/01/27 10:31:01;;;;;;;3.15;1.33;;;4.90;99.90;;;;;;5038626;28;20055;-81
2023/01/27 10:33:33;;;;;;;6.28;1.30;;;4.90;99.90;;;;;;5040016;28;20113;-81
2023/01/27 10:36:02;;;;;;;5.38;1.60;;;4.80;99.90;;;;;;5039902;28;20048;-81
2023/01/27 10:38:31;;;;;;;4.15;1.30;;;4.80;99.90;;;;;;5044006;28;20045;-80
2023/01/27 10:41:30;;;;;;;2.92;1.35;;;4.80;99.90;;;;;;5038646;28;20475;-80
2023/01/27 10:44:17;;;;;;;4.30;1.52;;;4.80;99.90;;;;;;5063421;28;20104;-80
2023/01/27 10:47:14;;;;;;;2.78;1.35;;;4.80;99.90;;;;;;5048966;28;20048;-81
2023/01/27 10:49:54;;;;;;;4.15;1.92;;;4.80;99.90;;;;;;5042418;28;20543;-81
2023/01/27 10:52:32;;;;;;;4.28;1.85;;;4.80;99.90;;;;;;5044124;28;20037;-81
2023/01/27 10:55:04;;;;;;;5.95;2.45;;;4.80;99.90;;;;;;5044593;28;20116;-80
2023/01/27 10:57:40;;;;;;;4.60;2.00;;;4.80;99.90;;;;;;5053840;28;20048;-80
2023/01/27 11:00:15;;;;;;;4.95;2.20;;;4.70;99.90;;;;;;5043019;28;20399;-81
2023/01/27 11:03:12;;;;;;;4.35;2.25;;;4.70;99.90;;;;;;5051234;28;20048;-80
2023/01/27 11:05:42;;;;;;;3.72;1.80;;;4.70;99.90;;;;;;5043983;28;20041;-80
2023/01/27 11:08:18;;;;;;;4.30;1.73;;;4.70;99.90;;;;;;5044494;28;20041;-80
2023/01/27 11:13:32;;;;;;;3.67;1.83;;;4.70;99.90;;;;;;5044221;28;20044;-80
2023/01/27 11:16:00;;;;;;;3.58;1.90;;;4.80;99.90;;;;;;5046578;28;20040;-80
2023/01/27 11:18:28;;;;;;;3.50;1.70;;;4.80;99.90;;;;;;5048688;28;20037;-82
2023/01/27 11:21:04;;;;;;;2.60;1.40;;;4.80;99.90;;;;;;5047794;28;20174;-81
2023/01/27 11:23:34;;;;;;;3.95;1.70;;;4.90;99.90;;;;;;5046095;28;20049;-81
2023/01/27 11:26:10;;;;;;;2.88;1.27;;;6.30;99.90;;;;;;5047705;28;20049;-81
2023/01/27 11:28:55;;;;;;;3.33;1.30;;;4.90;99.90;;;;;;5047117;28;20037;-81
2023/01/27 11:31:36;;;;;;;4.85;1.88;;;4.80;99.90;;;;;;5047727;28;20044;-81
2023/01/27 11:34:09;;;;;;;2.72;1.35;;;4.90;99.90;;;;;;5039612;28;20484;-81
2023/01/27 11:36:34;;;;;;;3.00;1.60;;;4.90;99.90;;;;;;5046289;28;20045;-81
2023/01/27 11:39:03;;;;;;;3.05;1.60;;;4.90;99.90;;;;;;5040372;28;20052;-81
2023/01/27 11:41:32;;;;;;;3.03;1.70;;;4.80;99.90;;;;;;5050353;28;20051;-80
2023/01/27 11:44:05;;;;;;;2.65;1.48;;;4.80;99.90;;;;;;5046042;28;20028;-81
2023/01/27 11:46:34;;;;;;;4.20;1.80;;;4.80;99.90;;;;;;5052936;28;20483;-81
2023/01/27 11:49:01;;;;;;;2.65;1.40;;;4.80;99.90;;;;;;5041015;28;20090;-82
2023/01/27 11:51:37;;;;;;;2.58;1.50;;;4.80;99.90;;;;;;5042536;28;20060;-81
2023/01/27 11:54:18;;;;;;;3.25;1.33;;;4.80;99.90;;;;;;5061242;28;20513;-81
2023/01/27 11:56:47;;;;;;;2.40;1.40;;;4.80;99.90;;;;;;5044040;28;20078;-82
2023/01/27 11:59:23;;;;;;;3.08;1.50;;;5.20;99.90;;;;;;5045450;28;20045;-81
2023/01/27 12:01:54;;;;;;;3.67;1.63;;;4.80;99.90;;;;;;5045583;28;20045;-81
2023/01/27 12:04:45;;;;;;;3.25;1.67;;;4.80;99.90;;;;;;5048426;28;20391;-81
2023/01/27 12:07:41;;;;;;;3.58;1.60;;;4.80;99.90;;;;;;4973481;28;20118;-80
2023/01/27 12:10:31;;;;;;;4.40;1.83;;;4.70;99.90;;;;;;4978144;28;20118;-81
2023/01/27 12:13:00;;;;;;;3.42;1.65;;;4.70;99.90;;;;;;4980859;28;20125;-81
2023/01/27 12:15:29;;;;;;;2.88;1.70;;;4.70;99.90;;;;;;4981690;28;20513;-81
2023/01/27 12:18:02;;;;;;;4.18;1.30;;;4.70;99.90;;;;;;4982661;28;20125;-81
2023/01/27 12:20:37;;;;;;;3.05;1.70;;;4.60;99.90;;;;;;4987705;28;20050;-81
2023/01/27 12:23:25;;;;;;;4.13;1.73;;;4.60;99.90;;;;;;4968552;28;20053;-81
2023/01/27 12:26:01;;;;;;;3.30;1.73;;;4.60;99.90;;;;;;4979304;28;20421;-81
2023/01/27 12:28:44;;;;;;;3.45;1.70;;;4.60;99.90;;;;;;4985346;28;20096;-81
2023/01/27 12:31:18;;;;;;;3.35;1.77;;;4.60;99.90;;;;;;4984910;28;20097;-81
2023/01/27 12:33:55;;;;;;;3.65;1.35;;;4.60;99.90;;;;;;4976198;28;20058;-81
2023/01/27 12:36:23;;;;;;;4.13;1.50;;;4.60;99.90;;;;;;4969848;28;20081;-81
2023/01/27 12:38:52;;;;;;;8.25;1.88;;;4.60;99.90;;;;;;4966433;28;20061;-81
2023/01/27 12:41:29;;;;;;;3.38;1.52;;;4.60;99.90;;;;;;4987151;28;20086;-81
2023/01/27 12:44:12;;;;;;;2.65;1.40;;;4.60;99.90;;;;;;5014879;28;20064;-81
2023/01/27 12:46:41;;;;;;;2.67;1.20;;;4.60;99.90;;;;;;5050052;28;20041;-82
2023/01/27 12:49:13;;;;;;;2.75;1.40;;;4.60;99.90;;;;;;5057780;28;20053;-82
2023/01/27 12:51:42;;;;;;;3.13;1.48;;;4.60;99.90;;;;;;5048993;28;20130;-82
2023/01/27 12:54:28;;;;;;;3.38;1.45;;;4.60;99.90;;;;;;5064632;28;20144;-83
2023/01/27 12:57:01;;;;;;;3.38;1.63;;;4.50;99.90;;;;;;5045821;28;20048;-83
2023/01/27 12:59:27;;;;;;;4.13;1.33;;;4.60;99.90;;;;;;5049325;28;20107;-83
2023/01/27 13:02:08;;;;;;;4.63;1.40;;;4.60;99.90;;;;;;5045172;28;20476;-83
2023/01/27 13:04:34;;;;;;;3.05;1.58;;;4.60;99.90;;;;;;5047443;28;20708;-82
2023/01/27 13:07:11;;;;;;;3.42;1.85;;;4.60;99.90;;;;;;5046012;28;20123;-83
2023/01/27 13:09:46;;;;;;;4.32;2.00;;;4.60;99.90;;;;;;5047701;28;20044;-82
2023/01/27 13:12:20;;;;;;;3.55;1.90;;;4.60;99.90;;;;;;5043313;28;20052;-85
2023/01/27 13:14:51;;;;;;;4.10;2.35;;;4.60;99.90;;;;;;5040536;28;20087;-83
2023/01/27 13:17:37;;;;;;;4.20;2.08;;;4.60;99.90;;;;;;5049061;28;20172;-83
2023/01/27 13:20:06;;;;;;;3.83;1.90;;;4.50;99.90;;;;;;5047371;28;20494;-83
2023/01/27 13:22:41;;;;;;;3.88;1.60;;;3.60;99.90;;;;;;5046014;28;20085;-83
2023/01/27 13:25:29;;;;;;;3.55;1.73;;;5.20;99.90;;;;;;5031960;28;20064;-83
2023/01/27 13:27:58;;;;;;;3.60;2.13;;;4.50;99.90;;;;;;5056922;28;20091;-83
2023/01/27 13:30:34;;;;;;;4.20;2.13;;;4.50;99.90;;;;;;5044547;28;20087;-83
2023/01/27 13:33:28;;;;;;;4.07;2.08;;;4.60;99.90;;;;;;5046159;28;20052;-83
2023/01/27 13:36:19;;;;;;;4.83;2.07;;;4.50;99.90;;;;;;5048936;28;20045;-83
2023/01/27 13:38:57;;;;;;;4.47;2.50;;;4.50;99.90;;;;;;5042582;28;20865;-83
2023/01/27 13:41:50;;;;;;;4.72;2.20;;;4.50;99.90;;;;;;5057511;28;20056;-83
2023/01/27 13:44:31;;;;;;;4.90;2.38;;;4.50;99.90;;;;;;5047254;28;20048;-84
2023/01/27 13:47:01;;;;;;;4.55;2.42;;;4.50;99.90;;;;;;5068368;28;20439;-83
2023/01/27 13:49:33;;;;;;;4.15;2.25;;;4.50;99.90;;;;;;5062424;28;20873;-82